Time;durP1;ratioP1;P1;durP2;ratioP2;P2;SDS_P1;SDS_P2;PMS_P1;PMS_P2;Temp;Humidity;BMP_temperature;BMP_pressure;BME280_temperature;BME280_humidity;BME280_pressure;Samples;Min_cycle;Max_cycle;Signal;HPM_P1;HPM_P2
2021/07/04 00:00:44;;;;;;;;;;;;;;;22.28;56.05;100829.31;2211594;39;114743;-56
2021/07/04 00:02:16;;;;;;;;;;;;;;;22.28;56.11;100827.31;2210131;39;113975;-56
2021/07/04 00:03:47;;;;;;;;;;;;;;;22.28;56.09;100823.69;2210579;39;114889;-56
2021/07/04 00:05:21;;;;;;;;;;;;;;;22.26;56.14;100821.19;2211255;39;115173;-59
2021/07/04 00:06:52;;;;;;;;;;;;;;;22.25;56.07;100830.81;2214344;39;114792;-56
2021/07/04 00:08:25;;;;;;;;;;;;;;;22.25;56.15;100827.97;2211156;39;115859;-56
2021/07/04 00:09:56;;;;;;;;;;;;;;;22.26;56.17;100831.63;2211435;39;115478;-56
2021/07/04 00:11:28;;;;;;;;;;;;;;;22.27;56.32;100830.44;2211402;39;115436;-58
2021/07/04 00:12:59;;;;;;;;;;;;;;;22.25;56.16;100829.97;2211134;39;115621;-56
2021/07/04 00:14:31;;;;;;;;;;;;;;;22.27;56.14;100831.28;2206230;39;115500;-56
2021/07/04 00:16:03;;;;;;;;;;;;;;;22.24;56.22;100820.69;2211206;39;114731;-56
2021/07/04 00:17:35;;;;;;;;;;;;;;;22.24;56.42;100823.50;2210694;39;115559;-56
2021/07/04 00:19:07;;;;;;;;;;;;;;;22.22;56.36;100822.97;2210996;39;115060;-56
2021/07/04 00:20:39;;;;;;;;;;;;;;;22.23;56.23;100816.19;2211171;39;115573;-56
2021/07/04 00:22:11;;;;;;;;;;;;;;;22.20;56.34;100822.50;2211232;39;115517;-56
2021/07/04 00:23:42;;;;;;;;;;;;;;;22.21;56.35;100815.72;2210831;39;115538;-56
2021/07/04 00:25:15;;;;;;;;;;;;;;;22.20;56.39;100819.69;2210922;39;115530;-56
2021/07/04 00:26:46;;;;;;;;;;;;;;;22.20;56.13;100821.66;2210647;39;115490;-56
2021/07/04 00:28:19;;;;;;;;;;;;;;;22.17;56.21;100814.66;2213469;39;115480;-56
2021/07/04 00:29:50;;;;;;;;;;;;;;;22.18;56.36;100816.34;2209815;39;113767;-56
2021/07/04 00:31:22;;;;;;;;;;;;;;;22.14;56.51;100813.34;2210569;39;113699;-55
2021/07/04 00:32:54;;;;;;;;;;;;;;;22.20;56.43;100816.03;2212312;39;114079;-55
2021/07/04 00:34:25;;;;;;;;;;;;;;;22.18;56.49;100814.34;2210322;39;113691;-55
2021/07/04 00:35:57;;;;;;;;;;;;;;;22.18;56.52;100819.16;2213493;39;113929;-55
2021/07/04 00:37:29;;;;;;;;;;;;;;;22.18;56.77;100808.72;2212067;39;113757;-55
2021/07/04 00:39:01;;;;;;;;;;;;;;;22.18;56.79;100807.91;2209792;39;113717;-55
2021/07/04 00:40:32;;;;;;;;;;;;;;;22.19;56.60;100806.75;2209816;39;113785;-55
2021/07/04 00:42:04;;;;;;;;;;;;;;;22.21;56.56;100806.44;2211359;39;113674;-56
2021/07/04 00:43:36;;;;;;;;;;;;;;;22.21;56.53;100815.72;2208318;39;113733;-56
2021/07/04 00:45:09;;;;;;;;;;;;;;;22.18;56.46;100810.72;2211347;39;113737;-56
2021/07/04 00:46:40;;;;;;;;;;;;;;;22.22;56.65;100810.88;2211429;39;113964;-56
2021/07/04 00:48:14;;;;;;;;;;;;;;;22.17;56.47;100806.22;2211721;39;113662;-56
2021/07/04 00:49:47;;;;;;;;;;;;;;;22.17;56.45;100795.81;2211174;39;113551;-55
2021/07/04 00:51:18;;;;;;;;;;;;;;;22.21;56.58;100803.63;2213774;39;113532;-55
2021/07/04 00:52:52;;;;;;;;;;;;;;;22.20;56.42;100802.78;2210650;39;115179;-55
2021/07/04 00:54:24;;;;;;;;;;;;;;;22.24;56.53;100797.34;2210716;39;115813;-55
2021/07/04 00:55:55;;;;;;;;;;;;;;;22.19;56.41;100798.31;2209952;39;115205;-55
2021/07/04 00:57:27;;;;;;;;;;;;;;;22.18;56.65;100802.28;2209121;39;114438;-55
2021/07/04 00:58:59;;;;;;;;;;;;;;;22.20;56.88;100804.75;2209669;39;114840;-56
2021/07/04 01:00:32;;;;;;;;;;;;;;;22.19;56.58;100798.31;2215423;39;113883;-55
2021/07/04 01:02:03;;;;;;;;;;;;;;;22.18;56.65;100789.03;2210240;39;114931;-56
2021/07/04 01:03:35;;;;;;;;;;;;;;;22.17;56.63;100797.78;2210955;39;114743;-56
2021/07/04 01:05:11;;;;;;;;;;;;;;;22.18;56.63;100793.81;2211660;39;114891;-56
2021/07/04 01:06:43;;;;;;;;;;;;;;;22.17;56.59;100797.78;2210282;39;115498;-56
2021/07/04 01:08:15;;;;;;;;;;;;;;;22.18;56.43;100791.84;2210321;39;114792;-56
2021/07/04 01:09:46;;;;;;;;;;;;;;;22.16;56.70;100791.34;2211059;39;114760;-55
2021/07/04 01:11:18;;;;;;;;;;;;;;;22.18;56.44;100789.03;2209357;39;114823;-55
2021/07/04 01:12:51;;;;;;;;;;;;;;;22.17;56.60;100786.53;2214255;39;115172;-56
2021/07/04 01:14:22;;;;;;;;;;;;;;;22.16;56.82;100779.25;2210897;39;115556;-56
2021/07/04 01:15:55;;;;;;;;;;;;;;;22.19;56.52;100775.78;2211286;39;115951;-58
2021/07/04 01:17:27;;;;;;;;;;;;;;;22.17;56.61;100762.03;2209931;39;114839;-55
2021/07/04 01:18:58;;;;;;;;;;;;;;;22.16;56.77;100773.63;2210879;39;115631;-56
2021/07/04 01:20:30;;;;;;;;;;;;;;;22.17;56.68;100776.09;2211096;39;116042;-56
2021/07/04 01:22:03;;;;;;;;;;;;;;;22.18;56.58;100774.13;2210815;39;115919;-56
2021/07/04 01:23:34;;;;;;;;;;;;;;;22.17;56.39;100778.09;2211302;39;115946;-60
2021/07/04 01:25:08;;;;;;;;;;;;;;;22.17;56.62;100773.28;2208707;39;115990;-56
2021/07/04 01:26:39;;;;;;;;;;;;;;;22.16;56.65;100773.63;2209483;39;115548;-55
2021/07/04 01:28:12;;;;;;;;;;;;;;;22.16;56.89;100777.28;2211519;39;116069;-55
2021/07/04 01:29:43;;;;;;;;;;;;;;;22.16;56.47;100779.25;2211485;39;115966;-56
2021/07/04 01:31:15;;;;;;;;;;;;;;;22.17;56.46;100762.03;2210624;39;115502;-56
2021/07/04 01:32:46;;;;;;;;;;;;;;;22.15;56.73;100774.78;2211004;39;116131;-56
2021/07/04 01:34:18;;;;;;;;;;;;;;;22.15;56.75;100777.59;2213183;39;115493;-55
2021/07/04 01:35:50;;;;;;;;;;;;;;;22.15;56.74;100775.63;2206550;39;113835;-55
2021/07/04 01:37:21;;;;;;;;;;;;;;;22.17;56.86;100781.72;2211602;39;113825;-55
2021/07/04 01:38:53;;;;;;;;;;;;;;;22.15;56.57;100772.81;2211083;39;113744;-56
2021/07/04 01:40:25;;;;;;;;;;;;;;;22.14;57.04;100771.13;2210751;39;113942;-55
2021/07/04 01:41:57;;;;;;;;;;;;;;;22.13;56.87;100763.00;2208582;39;113893;-55
2021/07/04 01:43:28;;;;;;;;;;;;;;;22.15;56.82;100758.72;2211170;39;113937;-56
2021/07/04 01:49:13;;;;;;;;;;;;;;;22.15;56.91;100764.34;2208845;39;114036;-55
2021/07/04 01:50:52;;;;;;;;;;;;;;;22.14;56.99;100768.31;2210879;39;114048;-55
2021/07/04 01:52:24;;;;;;;;;;;;;;;22.18;57.18;100763.69;2205716;39;113709;-56
2021/07/04 01:53:55;;;;;;;;;;;;;;;22.15;57.09;100769.16;2209993;39;113937;-55
2021/07/04 01:55:32;;;;;;;;;;;;;;;22.13;57.08;100768.63;2208081;39;113864;-56
2021/07/04 01:57:13;;;;;;;;;;;;;;;22.15;57.21;100770.00;2212048;39;113824;-56
2021/07/04 01:58:45;;;;;;;;;;;;;;;22.14;57.00;100765.50;2211460;39;114798;-56
2021/07/04 02:00:19;;;;;;;;;;;;;;;22.16;57.06;100770.81;2209123;39;114788;-56
2021/07/04 02:01:51;;;;;;;;;;;;;;;22.16;57.07;100773.63;2209847;39;115045;-55
2021/07/04 02:03:23;;;;;;;;;;;;;;;22.14;56.67;100762.69;2210421;39;113906;-56
2021/07/04 02:04:54;;;;;;;;;;;;;;;22.15;56.81;100757.91;2203868;39;115105;-56
2021/07/04 02:06:26;;;;;;;;;;;;;;;22.14;57.02;100759.88;2211811;39;114752;-55
2021/07/04 02:07:57;;;;;;;;;;;;;;;22.15;57.15;100758.72;2213224;39;115218;-56
2021/07/04 02:09:29;;;;;;;;;;;;;;;22.18;57.29;100762.88;2211752;39;114732;-55
2021/07/04 02:11:00;;;;;;;;;;;;;;;22.16;57.08;100753.94;2208310;39;115317;-56
2021/07/04 02:12:32;;;;;;;;;;;;;;;22.16;57.33;100762.38;2209205;39;115029;-57
2021/07/04 02:14:04;;;;;;;;;;;;;;;22.19;57.43;100756.09;2211425;39;114801;-56
2021/07/04 02:15:38;;;;;;;;;;;;;;;22.16;57.32;100751.97;2209149;39;114091;-55
2021/07/04 02:17:11;;;;;;;;;;;;;;;22.15;57.41;100755.09;2209871;39;114705;-55
2021/07/04 02:18:43;;;;;;;;;;;;;;;22.19;57.26;100750.47;2213648;39;115593;-55
2021/07/04 02:20:25;;;;;;;;;;;;;;;22.19;57.16;100756.09;2209571;39;115536;-55
2021/07/04 02:21:56;;;;;;;;;;;;;;;22.17;57.23;100749.94;2210897;39;116151;-55
2021/07/04 02:23:29;;;;;;;;;;;;;;;22.18;57.12;100748.78;2212305;39;115483;-56
2021/07/04 02:25:01;;;;;;;;;;;;;;;22.17;57.26;100755.56;2211270;39;115493;-56
2021/07/04 02:26:34;;;;;;;;;;;;;;;22.17;57.09;100744.31;2211999;39;115556;-56
2021/07/04 02:28:05;;;;;;;;;;;;;;;22.19;57.19;100747.66;2214755;39;114833;-56
2021/07/04 02:29:38;;;;;;;;;;;;;;;22.18;57.43;100741.19;2211461;39;115834;-55
2021/07/04 02:31:09;;;;;;;;;;;;;;;22.17;57.34;100735.88;2211287;39;116439;-64
2021/07/04 02:32:41;;;;;;;;;;;;;;;22.17;57.39;100739.53;2211822;39;114489;-57
2021/07/04 02:34:14;;;;;;;;;;;;;;;22.18;57.25;100737.53;2210828;39;115570;-56
2021/07/04 02:36:03;;;;;;;;;;;;;;;22.20;57.24;100743.69;2208175;39;115695;-55
2021/07/04 02:37:35;;;;;;;;;;;;;;;22.16;57.09;100737.06;2211539;39;115537;-55
2021/07/04 02:39:07;;;;;;;;;;;;;;;22.17;57.27;100733.91;2211508;39;115695;-55
2021/07/04 02:40:39;;;;;;;;;;;;;;;22.19;57.29;100733.56;2211365;39;115788;-55
2021/07/04 02:42:11;;;;;;;;;;;;;;;22.19;57.42;100739.22;2211076;39;114594;-55
2021/07/04 02:43:43;;;;;;;;;;;;;;;22.20;57.06;100735.25;2210798;39;113898;-56
2021/07/04 02:45:15;;;;;;;;;;;;;;;22.18;57.30;100731.91;2209979;39;114328;-55
2021/07/04 02:46:46;;;;;;;;;;;;;;;22.18;57.29;100740.34;2212983;39;113893;-56
2021/07/04 02:48:18;;;;;;;;;;;;;;;22.17;57.45;100733.91;2209688;39;113958;-55
2021/07/04 02:49:50;;;;;;;;;;;;;;;22.17;57.34;100733.91;2210129;39;113620;-56
2021/07/04 02:51:21;;;;;;;;;;;;;;;22.17;57.50;100733.06;2211211;39;113689;-55
2021/07/04 02:52:53;;;;;;;;;;;;;;;22.17;57.18;100733.06;2211527;39;113825;-55
2021/07/04 02:54:26;;;;;;;;;;;;;;;22.17;57.31;100736.72;2210591;39;113686;-55
2021/07/04 02:55:58;;;;;;;;;;;;;;;22.16;57.35;100732.25;2212344;39;113726;-55
2021/07/04 02:57:29;;;;;;;;;;;;;;;22.18;57.42;100729.09;2209406;39;113815;-56
2021/07/04 02:59:01;;;;;;;;;;;;;;;22.17;57.33;100738.69;2210666;39;113950;-55
2021/07/04 03:00:32;;;;;;;;;;;;;;;22.18;57.58;100738.38;2211495;39;113551;-55
2021/07/04 03:02:04;;;;;;;;;;;;;;;22.20;57.29;100740.03;2211203;39;113676;-55
2021/07/04 03:03:36;;;;;;;;;;;;;;;22.21;57.24;100736.91;2214159;39;113751;-56
2021/07/04 03:05:08;;;;;;;;;;;;;;;22.22;57.34;100734.91;2211723;39;114362;-55
2021/07/04 03:06:40;;;;;;;;;;;;;;;22.23;57.30;100740.22;2210323;39;114859;-56
2021/07/04 03:08:11;;;;;;;;;;;;;;;22.20;57.34;100737.22;2211835;39;115102;-55
2021/07/04 03:09:43;;;;;;;;;;;;;;;22.22;57.23;100734.91;2211180;39;114174;-56
2021/07/04 03:11:15;;;;;;;;;;;;;;;22.22;57.26;100734.91;2208977;39;114591;-55
2021/07/04 03:12:46;;;;;;;;;;;;;;;22.21;57.19;100728.47;2211347;39;114786;-55
2021/07/04 03:14:18;;;;;;;;;;;;;;;22.22;57.50;100729.28;2211471;39;114910;-56
2021/07/04 03:15:51;;;;;;;;;;;;;;;22.22;57.55;100737.72;2211546;39;114231;-55
2021/07/04 03:17:22;;;;;;;;;;;;;;;22.23;57.31;100734.59;2209359;39;115439;-56
2021/07/04 03:18:54;;;;;;;;;;;;;;;22.20;57.28;100735.25;2210667;39;114024;-56
2021/07/04 03:20:26;;;;;;;;;;;;;;;22.21;57.21;100742.53;2210520;39;115420;-55
2021/07/04 03:24:34;;;;;;;;;;;;;;;22.23;57.21;100731.78;2211524;39;113653;-55
2021/07/04 03:26:06;;;;;;;;;;;;;;;22.23;57.33;100734.59;2213784;39;114814;-56
2021/07/04 03:27:38;;;;;;;;;;;;;;;22.22;57.29;100735.72;2211365;39;115572;-55
2021/07/04 03:29:09;;;;;;;;;;;;;;;22.24;57.18;100732.59;2210399;39;115768;-56
2021/07/04 03:30:41;;;;;;;;;;;;;;;22.24;57.28;100727.81;2210478;39;114540;-55
2021/07/04 03:32:13;;;;;;;;;;;;;;;22.21;57.26;100733.25;2211638;39;115903;-55
2021/07/04 03:33:44;;;;;;;;;;;;;;;22.23;57.30;100731.78;2211700;39;115554;-55
2021/07/04 03:35:16;;;;;;;;;;;;;;;22.21;57.46;100725.66;2207102;39;115518;-55
2021/07/04 03:36:48;;;;;;;;;;;;;;;22.22;57.60;100734.91;2210461;39;115496;-55
2021/07/04 03:38:20;;;;;;;;;;;;;;;22.24;57.31;100732.59;2210541;39;115576;-55
2021/07/04 03:39:51;;;;;;;;;;;;;;;22.21;57.32;100734.09;2211126;39;115900;-55
2021/07/04 03:41:23;;;;;;;;;;;;;;;22.21;57.50;100731.28;2211249;39;115521;-56
2021/07/04 03:42:55;;;;;;;;;;;;;;;22.25;57.47;100734.28;2211291;39;115913;-55
2021/07/04 03:44:26;;;;;;;;;;;;;;;22.22;57.27;100723.63;2210465;39;114698;-55
2021/07/04 03:45:58;;;;;;;;;;;;;;;22.23;57.34;100728.13;2206522;39;115562;-56
2021/07/04 03:47:30;;;;;;;;;;;;;;;22.21;57.50;100717.22;2213938;39;115604;-55
2021/07/04 03:49:02;;;;;;;;;;;;;;;22.22;57.42;100720.81;2211588;39;113787;-55
2021/07/04 03:50:34;;;;;;;;;;;;;;;22.20;57.66;100711.91;2206509;39;113957;-55
2021/07/04 03:52:08;;;;;;;;;;;;;;;22.21;57.47;100720.03;2208739;39;113891;-56
2021/07/04 03:53:45;;;;;;;;;;;;;;;22.18;57.53;100712.22;2209149;39;113860;-55
2021/07/04 03:55:17;;;;;;;;;;;;;;;22.20;57.59;100718.34;2207204;39;113899;-56
2021/07/04 03:56:48;;;;;;;;;;;;;;;22.20;57.63;100714.72;2209681;39;113876;-55
2021/07/04 03:58:20;;;;;;;;;;;;;;;22.21;57.81;100711.59;2207379;39;114165;-55
2021/07/04 03:59:54;;;;;;;;;;;;;;;22.20;57.47;100717.53;2209048;39;113768;-55
2021/07/04 04:01:26;;;;;;;;;;;;;;;22.24;57.48;100710.91;2210387;39;114221;-55
2021/07/04 04:02:57;;;;;;;;;;;;;;;22.21;57.56;100711.59;2211306;39;113805;-55
2021/07/04 04:04:30;;;;;;;;;;;;;;;22.21;57.61;100717.22;2210993;39;113637;-55
2021/07/04 04:06:02;;;;;;;;;;;;;;;22.18;57.79;100717.84;2211167;39;113954;-56
2021/07/04 04:07:34;;;;;;;;;;;;;;;22.20;57.40;100720.34;2210383;39;113806;-55
2021/07/04 04:09:06;;;;;;;;;;;;;;;22.20;57.84;100720.34;2209980;39;113739;-55
2021/07/04 04:10:37;;;;;;;;;;;;;;;22.21;57.62;100716.38;2213178;39;114572;-55
2021/07/04 04:12:10;;;;;;;;;;;;;;;22.21;57.81;100717.22;2210578;39;114920;-56
2021/07/04 04:13:41;;;;;;;;;;;;;;;22.20;57.70;100721.16;2210029;39;114737;-55
2021/07/04 04:15:13;;;;;;;;;;;;;;;22.21;57.72;100710.75;2207582;39;114815;-55
2021/07/04 04:16:45;;;;;;;;;;;;;;;22.22;57.78;100718.84;2211615;39;114676;-55
2021/07/04 04:18:18;;;;;;;;;;;;;;;22.22;57.86;100710.41;2210447;39;114717;-55
2021/07/04 04:19:50;;;;;;;;;;;;;;;22.23;57.67;100714.88;2210808;39;114898;-55
2021/07/04 04:21:22;;;;;;;;;;;;;;;22.21;57.64;100717.22;2212077;39;113821;-55
2021/07/04 04:22:54;;;;;;;;;;;;;;;22.22;57.69;100715.19;2212646;39;114756;-55
2021/07/04 04:24:25;;;;;;;;;;;;;;;22.19;58.00;100713.88;2211266;39;114780;-55
2021/07/04 04:25:57;;;;;;;;;;;;;;;22.22;57.86;100718.00;2208391;39;114896;-55
2021/07/04 04:27:29;;;;;;;;;;;;;;;22.23;57.85;100722.50;2209374;39;114974;-55
2021/07/04 04:29:00;;;;;;;;;;;;;;;22.20;57.67;100712.72;2207656;39;115030;-55
2021/07/04 04:30:33;;;;;;;;;;;;;;;22.21;57.95;100716.38;2209792;39;114898;-55
2021/07/04 04:32:05;;;;;;;;;;;;;;;22.19;57.70;100719.50;2213402;39;114824;-56
2021/07/04 04:33:37;;;;;;;;;;;;;;;22.20;58.07;100715.53;2211614;39;115587;-55
2021/07/04 04:35:09;;;;;;;;;;;;;;;22.19;58.08;100713.88;2211468;39;115456;-55
2021/07/04 04:36:41;;;;;;;;;;;;;;;22.19;58.22;100702.63;2211639;39;115672;-54
2021/07/04 04:38:13;;;;;;;;;;;;;;;22.18;58.16;100715.84;2209664;39;114930;-55
2021/07/04 04:39:44;;;;;;;;;;;;;;;22.22;58.31;100716.03;2209206;39;114868;-55
2021/07/04 04:41:18;;;;;;;;;;;;;;;22.21;58.30;100719.19;2211510;39;115710;-55
2021/07/04 04:42:50;;;;;;;;;;;;;;;22.22;58.33;100709.56;2211050;39;115583;-58
2021/07/04 04:44:22;;;;;;;;;;;;;;;22.21;58.14;100705.13;2210540;39;115559;-55
2021/07/04 04:45:54;;;;;;;;;;;;;;;22.20;58.22;100703.47;2211147;39;115893;-55
2021/07/04 04:47:26;;;;;;;;;;;;;;;22.18;58.26;100701.78;2211320;39;115542;-55
2021/07/04 04:48:58;;;;;;;;;;;;;;;22.19;58.50;100702.63;2209788;39;115545;-55
2021/07/04 04:50:29;;;;;;;;;;;;;;;22.21;58.37;100705.13;2208686;39;115567;-55
2021/07/04 04:52:03;;;;;;;;;;;;;;;22.21;58.37;100705.13;2209662;39;114807;-55
2021/07/04 04:53:34;;;;;;;;;;;;;;;22.20;58.31;100703.47;2213094;39;115536;-55
2021/07/04 04:55:07;;;;;;;;;;;;;;;22.21;58.50;100708.78;2207319;39;113764;-55
2021/07/04 04:56:39;;;;;;;;;;;;;;;22.19;58.60;100705.44;2208204;39;113748;-55
2021/07/04 04:58:10;;;;;;;;;;;;;;;22.26;58.22;100704.97;2210232;39;113808;-55
2021/07/04 04:59:42;;;;;;;;;;;;;;;22.21;58.32;100700.31;2210691;39;114638;-55
2021/07/04 05:01:14;;;;;;;;;;;;;;;22.21;58.62;100700.31;2210683;39;113689;-55
2021/07/04 05:02:45;;;;;;;;;;;;;;;22.22;58.44;100703.94;2213288;39;113747;-56
2021/07/04 05:04:17;;;;;;;;;;;;;;;22.20;58.38;100701.47;2211239;39;113670;-56
2021/07/04 05:05:49;;;;;;;;;;;;;;;22.21;58.37;100700.31;2210141;39;113973;-55
2021/07/04 05:07:20;;;;;;;;;;;;;;;22.21;58.67;100702.31;2210591;39;114103;-55
2021/07/04 05:08:53;;;;;;;;;;;;;;;22.20;58.33;100695.84;2210671;39;113890;-55
2021/07/04 05:10:24;;;;;;;;;;;;;;;22.20;58.57;100689.38;2210853;39;113616;-55
2021/07/04 05:11:56;;;;;;;;;;;;;;;22.21;58.62;100696.69;2211076;39;113619;-55
2021/07/04 05:13:28;;;;;;;;;;;;;;;22.21;58.75;100691.88;2209135;39;113879;-55
2021/07/04 05:15:00;;;;;;;;;;;;;;;22.21;58.48;100694.69;2213135;39;113835;-56
2021/07/04 05:16:32;;;;;;;;;;;;;;;22.20;58.85;100686.56;2210812;39;114786;-55
2021/07/04 05:18:06;;;;;;;;;;;;;;;22.17;58.80;100688.88;2210600;39;115404;-55
2021/07/04 05:19:38;;;;;;;;;;;;;;;22.19;58.73;100685.75;2210449;39;114806;-55
2021/07/04 05:21:10;;;;;;;;;;;;;;;22.17;58.64;100685.22;2209454;39;113750;-55
2021/07/04 05:22:41;;;;;;;;;;;;;;;22.17;58.87;100683.25;2210314;39;114871;-55
2021/07/04 05:24:14;;;;;;;;;;;;;;;22.18;58.74;100681.25;2209215;39;114769;-55
2021/07/04 05:25:45;;;;;;;;;;;;;;;22.17;58.87;100685.22;2211200;39;114739;-55
2021/07/04 05:27:17;;;;;;;;;;;;;;;22.17;58.84;100679.59;2211182;39;115204;-55
2021/07/04 05:28:49;;;;;;;;;;;;;;;22.17;59.09;100680.41;2211193;39;114917;-55
2021/07/04 05:30:20;;;;;;;;;;;;;;;22.20;58.94;100678.13;2211358;39;114812;-56
2021/07/04 05:31:52;;;;;;;;;;;;;;;22.17;59.01;100676.78;2211143;39;114796;-56
2021/07/04 05:33:24;;;;;;;;;;;;;;;22.18;58.91;100670.84;2210843;39;115220;-55
2021/07/04 05:34:55;;;;;;;;;;;;;;;22.23;58.82;100678.28;2210758;39;114812;-55
2021/07/04 05:36:27;;;;;;;;;;;;;;;22.25;58.99;100678.81;2211905;39;114764;-55
2021/07/04 05:37:58;;;;;;;;;;;;;;;22.22;58.91;100673.81;2208036;39;115513;-55
2021/07/04 05:39:30;;;;;;;;;;;;;;;22.20;59.08;100678.97;2211339;39;115449;-55
2021/07/04 05:41:02;;;;;;;;;;;;;;;22.22;59.22;100672.97;2211045;39;115517;-55
2021/07/04 05:42:34;;;;;;;;;;;;;;;22.19;59.01;100668.84;2211147;39;114534;-55
2021/07/04 05:44:05;;;;;;;;;;;;;;;22.22;59.06;100672.97;2210593;39;114986;-55
2021/07/04 05:45:37;;;;;;;;;;;;;;;22.20;58.96;100672.50;2211224;39;115464;-56
2021/07/04 05:47:09;;;;;;;;;;;;;;;22.20;58.93;100676.16;2210201;39;115944;-55
2021/07/04 05:48:42;;;;;;;;;;;;;;;22.20;59.01;100670.50;2210259;39;115572;-55
2021/07/04 05:50:13;;;;;;;;;;;;;;;22.21;59.29;100672.19;2210851;39;114551;-55
2021/07/04 05:51:45;;;;;;;;;;;;;;;22.21;59.00;100663.75;2211003;39;115542;-55
2021/07/04 05:53:17;;;;;;;;;;;;;;;22.19;59.31;100663.22;2207560;39;115483;-55
2021/07/04 05:54:48;;;;;;;;;;;;;;;22.20;59.24;100664.88;2208177;39;117227;-55
2021/07/04 05:56:20;;;;;;;;;;;;;;;22.23;59.17;100669.03;2210887;39;115598;-55
2021/07/04 05:57:51;;;;;;;;;;;;;;;22.19;59.23;100660.41;2210781;39;115856;-55
2021/07/04 05:59:23;;;;;;;;;;;;;;;22.20;59.30;100659.25;2213443;39;115532;-55
2021/07/04 06:00:55;;;;;;;;;;;;;;;22.17;59.33;100657.91;2210944;39;113994;-59
2021/07/04 06:02:26;;;;;;;;;;;;;;;22.19;59.13;100663.22;2208061;39;113616;-55
2021/07/04 06:03:58;;;;;;;;;;;;;;;22.20;59.24;100662.06;2210198;39;113745;-55
2021/07/04 06:05:30;;;;;;;;;;;;;;;22.21;59.13;100658.09;2210442;39;113612;-55
2021/07/04 06:07:02;;;;;;;;;;;;;;;22.24;59.27;100659.44;2210530;39;113631;-56
2021/07/04 06:08:33;;;;;;;;;;;;;;;22.24;58.91;100660.25;2207441;39;113874;-55
2021/07/04 06:10:05;;;;;;;;;;;;;;;22.23;59.41;100664.22;2207395;39;113789;-55
2021/07/04 06:11:37;;;;;;;;;;;;;;;22.19;59.17;100654.78;2208893;39;113937;-55
2021/07/04 06:13:08;;;;;;;;;;;;;;;22.21;59.22;100660.09;2210051;39;113772;-55
2021/07/04 06:14:40;;;;;;;;;;;;;;;22.21;59.45;100655.28;2211045;39;113852;-55
2021/07/04 06:16:12;;;;;;;;;;;;;;;22.20;59.40;100655.63;2210805;39;114109;-55
2021/07/04 06:17:43;;;;;;;;;;;;;;;22.20;59.14;100649.97;2210687;39;114186;-55
2021/07/04 06:19:15;;;;;;;;;;;;;;;22.23;59.60;100660.56;2210443;39;113753;-55
2021/07/04 06:20:47;;;;;;;;;;;;;;;22.22;59.48;100662.56;2213827;39;113928;-55
2021/07/04 06:22:19;;;;;;;;;;;;;;;22.20;59.47;100658.44;2210981;39;115189;-55
2021/07/04 06:23:50;;;;;;;;;;;;;;;22.20;59.43;100667.69;2215745;39;114742;-56
2021/07/04 06:25:22;;;;;;;;;;;;;;;22.21;59.41;100655.28;2211065;39;114395;-56
2021/07/04 06:26:54;;;;;;;;;;;;;;;22.22;59.43;100661.72;2211244;39;114636;-56
2021/07/04 06:28:25;;;;;;;;;;;;;;;22.22;59.38;100653.28;2207946;39;115661;-56
2021/07/04 06:29:57;;;;;;;;;;;;;;;22.20;59.47;100659.25;2204902;39;113869;-55
2021/07/04 06:31:29;;;;;;;;;;;;;;;22.23;59.40;100661.41;2210684;39;115327;-56
2021/07/04 06:33:00;;;;;;;;;;;;;;;22.21;59.49;100658.09;2207995;39;114768;-55
2021/07/04 06:34:32;;;;;;;;;;;;;;;22.23;59.25;100663.38;2207618;39;114734;-55
2021/07/04 06:36:04;;;;;;;;;;;;;;;22.21;59.41;100658.09;2210505;39;114608;-56
2021/07/04 06:37:35;;;;;;;;;;;;;;;22.22;59.35;100650.47;2211132;39;114745;-55
2021/07/04 06:39:07;;;;;;;;;;;;;;;22.24;59.38;100654.63;2210671;39;114724;-57
2021/07/04 06:40:38;;;;;;;;;;;;;;;22.25;59.33;100661.09;2211729;39;114942;-55
2021/07/04 06:42:10;;;;;;;;;;;;;;;22.18;59.29;100645.50;2214371;39;114819;-55
2021/07/04 06:43:42;;;;;;;;;;;;;;;22.23;59.37;100644.53;2210536;39;115485;-55
2021/07/04 06:45:14;;;;;;;;;;;;;;;22.21;59.25;100651.66;2210379;39;114677;-56
2021/07/04 06:46:45;;;;;;;;;;;;;;;22.19;59.30;100643.53;2210832;39;115451;-55
2021/07/04 06:48:17;;;;;;;;;;;;;;;22.23;59.52;100652.13;2212271;39;114642;-55
2021/07/04 06:49:49;;;;;;;;;;;;;;;22.25;59.32;100639.41;2211646;39;115543;-56
2021/07/04 06:51:21;;;;;;;;;;;;;;;22.19;59.39;100646.34;2211638;39;115641;-56
2021/07/04 06:52:52;;;;;;;;;;;;;;;22.21;59.43;100638.41;2211728;39;115265;-56
2021/07/04 06:54:24;;;;;;;;;;;;;;;22.21;59.46;100637.56;2211781;39;115635;-56
2021/07/04 06:55:56;;;;;;;;;;;;;;;22.20;59.61;100648.00;2211304;39;115397;-55
2021/07/04 06:57:27;;;;;;;;;;;;;;;22.23;59.75;100646.50;2211937;39;115454;-55
2021/07/04 06:58:59;;;;;;;;;;;;;;;22.18;60.14;100644.66;2211677;39;115540;-56
2021/07/04 07:00:31;;;;;;;;;;;;;;;22.20;60.01;100642.38;2211508;39;115578;-55
2021/07/04 07:02:02;;;;;;;;;;;;;;;22.18;59.99;100639.88;2211481;39;116059;-55
2021/07/04 07:03:35;;;;;;;;;;;;;;;22.20;60.30;100639.56;2212155;39;115675;-55
2021/07/04 07:05:08;;;;;;;;;;;;;;;22.20;60.29;100639.56;2209493;39;113669;-55
2021/07/04 07:06:40;;;;;;;;;;;;;;;22.25;60.29;100639.41;2207603;39;113917;-55
2021/07/04 07:08:11;;;;;;;;;;;;;;;22.20;60.37;100636.75;2211998;39;113714;-55
2021/07/04 07:09:43;;;;;;;;;;;;;;;22.20;60.57;100635.91;2212038;39;113691;-55
2021/07/04 07:11:14;;;;;;;;;;;;;;;22.17;60.73;100643.00;2211713;39;113837;-55
2021/07/04 07:12:46;;;;;;;;;;;;;;;22.19;60.74;100632.25;2210153;39;113655;-56
2021/07/04 07:14:21;;;;;;;;;;;;;;;22.19;60.66;100635.09;2207382;39;114056;-55
2021/07/04 07:15:53;;;;;;;;;;;;;;;22.20;60.96;100635.91;2211263;39;116429;-55
2021/07/04 07:17:25;;;;;;;;;;;;;;;22.17;60.83;100638.22;2211484;39;113893;-55
2021/07/04 07:18:56;;;;;;;;;;;;;;;22.18;61.00;100642.69;2211713;39;113620;-55
2021/07/04 07:20:28;;;;;;;;;;;;;;;22.20;60.79;100647.16;2211686;39;113807;-55
2021/07/04 07:22:00;;;;;;;;;;;;;;;22.19;61.22;100646.34;2210759;39;113854;-57
2021/07/04 07:23:31;;;;;;;;;;;;;;;22.20;61.25;100644.34;2213276;39;113678;-56
2021/07/04 07:25:04;;;;;;;;;;;;;;;22.18;61.13;100645.50;2211249;39;113743;-56
2021/07/04 07:26:36;;;;;;;;;;;;;;;22.18;61.04;100644.66;2212215;39;113947;-55
2021/07/04 07:28:07;;;;;;;;;;;;;;;22.21;61.29;100644.03;2211574;39;114402;-55
2021/07/04 07:29:39;;;;;;;;;;;;;;;22.18;61.26;100645.50;2213455;39;114004;-56
2021/07/04 07:31:11;;;;;;;;;;;;;;;22.19;61.17;100643.53;2211476;39;115328;-55
2021/07/04 07:32:42;;;;;;;;;;;;;;;22.20;61.33;100645.19;2211079;39;114852;-55
2021/07/04 07:34:14;;;;;;;;;;;;;;;22.20;61.44;100644.34;2210766;39;115789;-55
2021/07/04 07:35:50;;;;;;;;;;;;;;;22.17;61.32;100646.66;2208091;39;113848;-58
2021/07/04 07:37:23;;;;;;;;;;;;;;;22.20;61.71;100648.00;2209844;39;115259;-55
2021/07/04 07:38:55;;;;;;;;;;;;;;;22.21;61.44;100652.47;2210910;39;115439;-55
2021/07/04 07:40:26;;;;;;;;;;;;;;;22.20;61.42;100645.19;2210753;39;113795;-55
2021/07/04 07:41:58;;;;;;;;;;;;;;;22.18;61.32;100644.66;2210950;39;115052;-55
2021/07/04 07:43:30;;;;;;;;;;;;;;;22.18;61.46;100644.66;2211359;39;115936;-56
2021/07/04 07:45:02;;;;;;;;;;;;;;;22.20;61.44;100645.19;2211476;39;113815;-56
2021/07/04 07:46:34;;;;;;;;;;;;;;;22.21;61.35;100641.22;2211176;39;113933;-56
2021/07/04 07:48:06;;;;;;;;;;;;;;;22.22;61.64;100644.84;2213236;39;114833;-55
2021/07/04 07:49:37;;;;;;;;;;;;;;;22.21;61.24;100638.41;2211460;39;115504;-56
2021/07/04 07:51:09;;;;;;;;;;;;;;;22.22;61.33;100644.84;2211003;39;115469;-54
2021/07/04 07:52:41;;;;;;;;;;;;;;;22.22;61.38;100637.22;2211750;39;115926;-55
2021/07/04 07:54:12;;;;;;;;;;;;;;;22.21;61.26;100644.03;2210920;39;116236;-55